createdAt,value
2018-06-30T00:03:12.963Z,20.00
2018-06-30T00:08:15.215Z,19.97
2018-06-30T00:13:17.493Z,19.99
2018-06-30T00:18:19.761Z,19.99
2018-06-30T00:23:22.085Z,20.06
2018-06-30T00:28:24.382Z,20.00
2018-06-30T00:33:26.732Z,20.01
2018-06-30T00:38:29.052Z,20.03
2018-06-30T00:43:31.349Z,20.01
2018-06-30T00:48:33.713Z,20.02
2018-06-30T00:53:35.982Z,19.83
2018-06-30T00:58:38.296Z,19.75
2018-06-30T01:03:40.555Z,19.80
2018-06-30T01:08:43.311Z,19.65
2018-06-30T01:13:45.570Z,19.40
2018-06-30T01:18:47.859Z,19.29
2018-06-30T01:23:50.157Z,18.85
2018-06-30T01:28:52.429Z,18.90
2018-06-30T01:33:54.714Z,18.64
2018-06-30T01:38:57.016Z,18.79
2018-06-30T01:43:59.311Z,18.83
2018-06-30T01:49:01.580Z,18.81
2018-06-30T01:54:03.896Z,18.73
2018-06-30T01:59:06.195Z,18.74
2018-06-30T02:04:08.431Z,18.69
2018-06-30T02:09:11.238Z,18.66
2018-06-30T02:14:13.488Z,18.67
2018-06-30T02:19:15.764Z,18.62
2018-06-30T02:24:18.045Z,18.67
2018-06-30T02:29:20.350Z,18.63
2018-06-30T02:34:22.651Z,18.30
2018-06-30T02:39:25.823Z,18.12
2018-06-30T02:44:28.113Z,18.12
2018-06-30T02:49:30.374Z,18.15
2018-06-30T02:54:32.687Z,18.14
2018-06-30T02:59:35.022Z,18.08
2018-06-30T03:04:37.325Z,18.13
2018-06-30T03:09:39.926Z,18.08
2018-06-30T03:14:42.191Z,18.09
2018-06-30T03:19:44.470Z,18.05
2018-06-30T03:24:46.734Z,18.11
2018-06-30T03:29:49.036Z,18.09
2018-06-30T03:34:51.314Z,18.08
2018-06-30T03:39:53.662Z,18.07
2018-06-30T03:44:55.919Z,18.07
2018-06-30T03:49:58.200Z,18.15
2018-06-30T03:55:00.457Z,18.13
2018-06-30T04:00:03.054Z,18.20
2018-06-30T04:05:05.447Z,18.12
2018-06-30T04:10:07.701Z,18.12
2018-06-30T04:15:09.983Z,18.04
2018-06-30T04:20:12.239Z,18.04
2018-06-30T04:25:14.498Z,18.00
2018-06-30T04:30:16.798Z,18.16
2018-06-30T04:35:19.062Z,18.10
2018-06-30T04:40:21.558Z,18.24
2018-06-30T04:45:23.847Z,18.14
2018-06-30T04:50:26.283Z,18.16
2018-06-30T04:55:29.551Z,18.29
2018-06-30T05:00:31.890Z,18.36
2018-06-30T05:05:35.065Z,17.91
2018-06-30T05:10:37.319Z,17.90
2018-06-30T05:15:39.617Z,17.85
2018-06-30T05:20:41.891Z,17.91
2018-06-30T05:25:44.150Z,18.10
2018-06-30T05:30:46.447Z,18.21
2018-06-30T05:35:48.748Z,18.38
2018-06-30T05:40:51.025Z,18.63
2018-06-30T05:45:53.285Z,18.70
2018-06-30T05:50:55.552Z,18.87
2018-06-30T05:55:57.840Z,18.64
2018-06-30T06:01:00.202Z,19.01
2018-06-30T06:06:02.502Z,19.18
2018-06-30T06:11:04.989Z,19.30
2018-06-30T06:16:07.264Z,19.51
2018-06-30T06:21:09.570Z,19.79
2018-06-30T06:26:11.900Z,19.84
2018-06-30T06:31:14.191Z,19.86
2018-06-30T06:36:16.647Z,19.97
2018-06-30T06:41:18.990Z,19.90
2018-06-30T06:46:21.286Z,20.05
2018-06-30T06:51:23.546Z,20.40
2018-06-30T06:56:26.081Z,20.77
2018-06-30T07:01:28.372Z,20.80
2018-06-30T07:06:30.643Z,20.93
2018-06-30T07:11:32.919Z,20.97
2018-06-30T07:16:35.244Z,20.78
2018-06-30T07:21:37.553Z,20.94
2018-06-30T07:26:39.890Z,20.63
2018-06-30T07:31:42.280Z,20.65
2018-06-30T07:36:44.494Z,20.71
2018-06-30T07:41:46.793Z,20.85
2018-06-30T07:46:49.067Z,20.83
2018-06-30T07:51:51.399Z,20.86
2018-06-30T07:56:53.670Z,20.98
2018-06-30T08:01:55.993Z,21.14
2018-06-30T08:06:58.320Z,21.69
2018-06-30T08:12:00.616Z,21.95
2018-06-30T08:17:03.102Z,22.21
2018-06-30T08:22:05.570Z,22.60
2018-06-30T08:27:07.939Z,22.88
2018-06-30T08:32:10.221Z,23.07
2018-06-30T08:37:12.529Z,22.42
2018-06-30T08:42:14.877Z,22.71
2018-06-30T08:47:17.193Z,23.00
2018-06-30T08:52:19.496Z,23.15
2018-06-30T08:57:21.796Z,23.34
2018-06-30T09:02:24.390Z,23.59
2018-06-30T09:07:26.689Z,23.53
2018-06-30T09:12:28.965Z,23.35
2018-06-30T09:17:31.290Z,22.85
2018-06-30T09:22:33.645Z,22.72
2018-06-30T09:27:35.930Z,22.82
2018-06-30T09:32:38.219Z,23.40
2018-06-30T09:37:40.492Z,23.53
2018-06-30T09:42:42.801Z,23.66
2018-06-30T09:47:45.144Z,23.84
2018-06-30T09:52:47.454Z,23.67
2018-06-30T09:57:49.791Z,23.94
2018-06-30T10:02:52.687Z,24.20
2018-06-30T10:07:54.978Z,23.85
2018-06-30T10:12:57.281Z,23.58
2018-06-30T10:17:59.598Z,23.80
2018-06-30T10:23:01.908Z,24.22
2018-06-30T10:28:04.340Z,24.60
2018-06-30T10:33:06.644Z,24.78
2018-06-30T10:38:08.905Z,24.76
2018-06-30T10:43:11.226Z,24.96
2018-06-30T10:48:13.594Z,25.11
2018-06-30T10:53:15.906Z,25.31
2018-06-30T10:58:18.227Z,25.66
2018-06-30T11:03:20.591Z,25.65
2018-06-30T11:08:22.891Z,25.75
2018-06-30T11:13:25.183Z,26.22
2018-06-30T11:18:27.498Z,26.46
2018-06-30T11:23:29.833Z,26.41
2018-06-30T11:28:32.162Z,26.45
2018-06-30T11:33:34.469Z,26.77
2018-06-30T11:38:36.771Z,26.96
2018-06-30T11:43:39.076Z,27.04
2018-06-30T11:48:41.325Z,27.24
2018-06-30T11:53:43.631Z,27.17
2018-06-30T11:58:45.916Z,27.40
2018-06-30T12:03:48.262Z,27.80
2018-06-30T12:08:50.722Z,27.80
2018-06-30T12:13:53.085Z,28.01
2018-06-30T12:18:55.412Z,28.17
2018-06-30T12:23:57.698Z,27.21
2018-06-30T12:28:59.999Z,27.93
2018-06-30T12:34:02.345Z,28.46
2018-06-30T12:39:06.721Z,28.98
2018-06-30T12:44:08.983Z,29.18
2018-06-30T12:49:11.270Z,29.31
2018-06-30T12:54:13.650Z,29.96
2018-06-30T12:59:15.941Z,29.96
2018-06-30T13:04:18.283Z,30.07
2018-06-30T13:09:20.655Z,30.56
2018-06-30T13:14:22.949Z,30.55
2018-06-30T13:19:25.277Z,30.77
2018-06-30T13:24:27.599Z,30.99
2018-06-30T13:29:29.921Z,30.86
2018-06-30T13:34:32.297Z,31.23
2018-06-30T13:39:34.588Z,31.07
2018-06-30T13:44:37.007Z,30.87
2018-06-30T13:49:39.342Z,31.04
2018-06-30T13:54:41.678Z,31.12
2018-06-30T13:59:44.047Z,31.47
2018-06-30T14:04:46.436Z,31.75
2018-06-30T14:09:48.790Z,31.58
2018-06-30T14:14:51.115Z,31.63
2018-06-30T14:19:53.426Z,31.56
2018-06-30T14:24:55.812Z,31.17
2018-06-30T14:29:58.147Z,31.44
2018-06-30T14:35:00.460Z,31.80
2018-06-30T14:40:02.848Z,31.19
2018-06-30T14:45:05.266Z,31.32
2018-06-30T14:50:07.621Z,31.07
2018-06-30T14:55:09.997Z,31.23
2018-06-30T15:00:12.311Z,31.67
2018-06-30T15:05:14.692Z,30.36
2018-06-30T15:10:17.060Z,31.33
2018-06-30T15:15:19.443Z,31.75
2018-06-30T15:20:22.054Z,31.46
2018-06-30T15:25:24.367Z,31.28
2018-06-30T15:30:26.763Z,31.29
2018-06-30T15:35:29.070Z,31.30
2018-06-30T15:40:31.375Z,31.17
2018-06-30T15:45:33.707Z,31.38
2018-06-30T15:50:36.126Z,30.26
2018-06-30T15:55:38.434Z,30.89
2018-06-30T16:00:40.745Z,30.24
2018-06-30T16:05:43.788Z,30.51
2018-06-30T16:10:46.109Z,30.69
2018-06-30T16:15:48.417Z,30.85
2018-06-30T16:20:50.715Z,30.53
2018-06-30T16:25:53.002Z,30.23
2018-06-30T16:30:55.319Z,29.07
2018-06-30T16:35:57.836Z,29.15
2018-06-30T16:41:00.145Z,29.58
2018-06-30T16:46:02.484Z,29.93
2018-06-30T16:51:04.892Z,30.16
2018-06-30T16:56:07.238Z,30.33
2018-06-30T17:01:09.576Z,29.84
2018-06-30T17:06:11.914Z,29.72
2018-06-30T17:11:14.214Z,29.74
2018-06-30T17:16:16.527Z,29.12
2018-06-30T17:21:18.879Z,29.56
2018-06-30T17:26:21.238Z,29.62
2018-06-30T17:31:23.536Z,29.32
2018-06-30T17:36:25.858Z,29.11
2018-06-30T17:41:28.166Z,29.07
2018-06-30T17:46:30.493Z,28.91
2018-06-30T17:51:33.160Z,28.72
2018-06-30T17:56:35.597Z,29.02
2018-06-30T18:01:38.898Z,28.75
2018-06-30T18:06:41.353Z,28.45
2018-06-30T18:11:43.705Z,28.32
2018-06-30T18:16:46.054Z,28.13
2018-06-30T18:21:48.995Z,27.98
2018-06-30T18:26:51.323Z,27.49
2018-06-30T18:31:53.664Z,27.12
2018-06-30T18:36:55.955Z,26.76
2018-06-30T18:41:58.313Z,26.14
2018-06-30T18:47:00.617Z,25.71
2018-06-30T18:52:03.011Z,25.26
2018-06-30T18:57:05.420Z,25.00
2018-06-30T19:02:07.775Z,24.68
2018-06-30T19:07:10.099Z,24.63
2018-06-30T19:12:12.452Z,24.65
2018-06-30T19:17:14.784Z,24.70
2018-06-30T19:22:17.183Z,24.63
2018-06-30T19:27:19.556Z,24.64
2018-06-30T19:32:21.864Z,24.62
2018-06-30T19:37:24.293Z,24.66
2018-06-30T19:42:26.628Z,24.60
2018-06-30T19:47:28.901Z,24.56
2018-06-30T19:52:31.272Z,24.50
2018-06-30T19:57:33.558Z,24.46
2018-06-30T20:02:35.900Z,24.42
2018-06-30T20:07:44.067Z,24.33
2018-06-30T20:12:46.448Z,24.29
2018-06-30T20:17:48.827Z,24.21
2018-06-30T20:22:51.175Z,24.16
2018-06-30T20:27:53.567Z,24.11
2018-06-30T20:32:55.873Z,24.05
2018-06-30T20:37:58.227Z,24.01
2018-06-30T20:43:00.559Z,23.97
2018-06-30T20:48:02.949Z,23.91
2018-06-30T20:53:05.485Z,23.90
2018-06-30T20:58:07.852Z,23.71
2018-06-30T21:03:12.257Z,23.23
2018-06-30T21:08:15.282Z,22.80
2018-06-30T21:13:17.611Z,22.55
2018-06-30T21:18:19.939Z,22.40
2018-06-30T21:23:22.255Z,22.33
2018-06-30T21:28:24.599Z,22.26
2018-06-30T21:33:26.916Z,22.09
2018-06-30T21:38:29.326Z,22.03
2018-06-30T21:43:31.644Z,22.01
2018-06-30T21:48:34.089Z,21.93
2018-06-30T21:53:37.112Z,21.90
2018-06-30T21:58:39.426Z,21.72
2018-06-30T22:03:42.007Z,21.56
2018-06-30T22:08:44.335Z,21.39
2018-06-30T22:13:46.649Z,21.34
2018-06-30T22:18:48.976Z,21.08
2018-06-30T22:23:51.296Z,20.93
2018-06-30T22:28:53.610Z,20.89
2018-06-30T22:33:55.977Z,20.89
2018-06-30T22:38:58.278Z,20.71
2018-06-30T22:44:00.604Z,20.46
2018-06-30T22:49:02.999Z,20.54
2018-06-30T22:54:05.743Z,20.63
2018-06-30T22:59:08.060Z,20.44
2018-06-30T23:04:10.376Z,20.44
2018-06-30T23:09:12.709Z,20.29
2018-06-30T23:14:15.028Z,20.13
2018-06-30T23:19:17.328Z,20.14
2018-06-30T23:24:19.626Z,20.02
2018-06-30T23:29:21.940Z,19.95
2018-06-30T23:34:24.265Z,19.94
2018-06-30T23:39:26.588Z,19.93
2018-06-30T23:44:28.927Z,19.78
2018-06-30T23:49:31.199Z,19.79
2018-06-30T23:54:33.474Z,19.55
2018-06-30T23:59:35.782Z,19.37
